Time;durP1;ratioP1;P1;durP2;ratioP2;P2;SDS_P1;SDS_P2;PMS_P1;PMS_P2;Temp;Humidity;BMP_temperature;BMP_pressure;BME280_temperature;BME280_humidity;BME280_pressure;Samples;Min_cycle;Max_cycle;Signal;HPM_P1;HPM_P2
2023/03/11 00:01:33;;;;;;;1.67;1.17;;;;;;;12.05;100.00;97275.06;5109818;28;20208;-64
2023/03/11 00:04:00;;;;;;;1.13;0.90;;;;;;;11.96;100.00;97270.94;5110022;28;20525;-61
2023/03/11 00:06:27;;;;;;;1.63;1.23;;;;;;;11.93;100.00;97271.25;5109951;28;20226;-61
2023/03/11 00:08:54;;;;;;;1.13;1.03;;;;;;;11.92;100.00;97270.44;5109952;28;20275;-61
2023/03/11 00:11:21;;;;;;;2.03;0.93;;;;;;;11.96;100.00;97266.59;5110173;28;20197;-61
2023/03/11 00:13:48;;;;;;;1.10;0.97;;;;;;;11.99;100.00;97270.59;5109928;28;20225;-61
2023/03/11 00:16:15;;;;;;;0.70;0.70;;;;;;;11.99;100.00;97258.59;5110204;28;20197;-64
2023/03/11 00:18:43;;;;;;;1.23;0.87;;;;;;;12.08;100.00;97261.13;5109880;28;20221;-64
2023/03/11 00:21:16;;;;;;;1.30;0.77;;;;;;;12.20;100.00;97262.38;5110059;28;20594;-61
2023/03/11 00:23:43;;;;;;;1.97;0.90;;;;;;;12.11;100.00;97271.84;5109600;28;20236;-61
2023/03/11 00:26:10;;;;;;;2.47;1.30;;;;;;;12.16;100.00;97268.81;5109750;28;20666;-61
2023/03/11 00:28:37;;;;;;;2.60;1.60;;;;;;;12.15;100.00;97269.75;5109926;28;20221;-64
2023/03/11 00:31:05;;;;;;;1.33;1.17;;;;;;;12.07;100.00;97264.63;5109748;28;20208;-64
2023/03/11 00:33:31;;;;;;;2.13;1.23;;;;;;;12.09;100.00;97265.28;5109491;28;20226;-64
2023/03/11 00:36:00;;;;;;;2.03;1.27;;;;;;;12.17;100.00;97267.81;5109774;28;20201;-64
2023/03/11 00:38:27;;;;;;;3.33;1.50;;;;;;;12.11;100.00;97264.16;5109535;28;20219;-64
2023/03/11 00:40:53;;;;;;;1.77;1.17;;;;;;;11.99;100.00;97271.41;5109601;28;20194;-64
2023/03/11 00:43:20;;;;;;;2.60;1.10;;;;;;;11.97;100.00;97257.94;5109999;28;20233;-64
2023/03/11 00:45:47;;;;;;;0.83;0.80;;;;;;;11.96;100.00;97251.25;5113733;28;20683;-64
2023/03/11 00:48:15;;;;;;;0.83;0.83;;;;;;;12.00;100.00;97252.50;5113728;28;20725;-64
2023/03/11 00:50:42;;;;;;;1.60;1.33;;;;;;;11.97;100.00;97247.72;5113698;28;20208;-64
2023/03/11 00:53:11;;;;;;;1.60;1.40;;;;;;;11.85;100.00;97238.78;5113789;28;20222;-64
2023/03/11 00:55:38;;;;;;;1.10;1.00;;;;;;;11.88;100.00;97233.34;5113548;28;20519;-61
2023/03/11 00:58:06;;;;;;;2.53;1.70;;;;;;;11.93;100.00;97225.97;5113434;28;20601;-61
2023/03/11 01:00:34;;;;;;;2.00;1.40;;;;;;;11.80;100.00;97215.41;5113401;28;20206;-61
2023/03/11 01:03:02;;;;;;;1.20;0.93;;;;;;;11.74;100.00;97221.19;5113091;28;20252;-61
2023/03/11 01:05:31;;;;;;;0.83;0.80;;;;;;;11.69;100.00;97219.13;5113257;28;20204;-64
2023/03/11 01:07:58;;;;;;;1.83;1.30;;;;;;;11.78;100.00;97212.22;5113249;28;20213;-64
2023/03/11 01:10:27;;;;;;;1.17;1.07;;;;;;;11.75;100.00;97202.28;5113133;28;20213;-64
2023/03/11 01:12:54;;;;;;;1.37;1.20;;;;;;;11.64;100.00;97197.53;5113333;28;20612;-64
2023/03/11 01:15:25;;;;;;;2.03;1.07;;;;;;;11.16;100.00;97181.28;5113439;28;20193;-64
2023/03/11 01:17:52;;;;;;;2.17;1.40;;;;;;;10.98;100.00;97169.47;5113252;28;20739;-64
2023/03/11 01:20:19;;;;;;;1.87;1.40;;;;;;;11.15;100.00;97159.25;5113101;28;20201;-64
2023/03/11 01:22:46;;;;;;;2.17;1.40;;;;;;;11.28;100.00;97155.19;5112970;28;20232;-61
2023/03/11 01:25:14;;;;;;;1.50;1.10;;;;;;;11.33;100.00;97152.16;5113315;28;20197;-64
2023/03/11 01:27:43;;;;;;;1.53;1.10;;;;;;;11.38;100.00;97144.03;5113565;28;20248;-64
2023/03/11 01:30:14;;;;;;;0.83;0.73;;;;;;;11.46;100.00;97147.34;5113484;28;20200;-61
2023/03/11 01:32:41;;;;;;;1.33;0.93;;;;;;;11.50;100.00;97133.25;5112953;27;21164;-60
2023/03/11 01:35:11;;;;;;;1.27;1.00;;;;;;;11.62;100.00;97140.59;5112888;28;20197;-61
2023/03/11 01:37:37;;;;;;;0.70;0.70;;;;;;;11.65;100.00;97148.72;5112604;28;20225;-61
2023/03/11 01:40:06;;;;;;;1.70;1.17;;;;;;;11.69;100.00;97151.75;5112650;28;20193;-61
2023/03/11 01:42:33;;;;;;;1.50;0.77;;;;;;;11.66;100.00;97144.41;5112605;28;20232;-61
2023/03/11 01:45:01;;;;;;;1.37;1.00;;;;;;;11.75;100.00;97130.59;5112907;28;20193;-61
2023/03/11 01:47:38;;;;;;;1.20;1.07;;;;;;;11.80;100.00;97133.47;5112545;28;20221;-61
2023/03/11 01:50:10;;;;;;;4.10;1.37;;;;;;;11.81;100.00;97129.13;5112530;28;20582;-61
2023/03/11 01:52:37;;;;;;;1.20;1.10;;;;;;;11.81;100.00;97137.63;5112544;28;20253;-61
2023/03/11 01:55:05;;;;;;;0.97;0.70;;;;;;;11.87;100.00;97137.00;5111819;28;20200;-64
2023/03/11 01:57:32;;;;;;;1.20;0.80;;;;;;;11.92;100.00;97137.28;5112192;28;20239;-64
2023/03/11 02:00:08;;;;;;;1.73;1.03;;;;;;;11.99;100.00;97137.44;5112512;28;20197;-64
2023/03/11 02:02:40;;;;;;;1.03;0.93;;;;;;;11.94;100.00;97135.34;5111975;28;20708;-64
2023/03/11 02:05:08;;;;;;;0.90;0.80;;;;;;;11.92;100.00;97137.28;5112553;28;20200;-61
2023/03/11 02:07:34;;;;;;;1.23;0.73;;;;;;;11.95;100.00;97131.81;5111993;28;20932;-61
2023/03/11 02:10:02;;;;;;;0.50;0.50;;;;;;;11.89;100.00;97132.50;5112133;28;20205;-61
2023/03/11 02:12:34;;;;;;;0.90;0.90;;;;;;;11.79;100.00;97135.22;5112271;28;20217;-61
2023/03/11 02:15:05;;;;;;;2.17;0.73;;;;;;;11.76;100.00;97152.69;5112014;28;20697;-63
2023/03/11 02:17:32;;;;;;;0.50;0.50;;;;;;;11.79;100.00;97154.91;5112189;28;20312;-63
2023/03/11 02:20:16;;;;;;;1.43;0.97;;;;;;;11.77;100.00;97155.06;5111836;28;20194;-64
2023/03/11 02:22:44;;;;;;;0.93;0.80;;;;;;;11.77;100.00;97164.53;5111666;28;20769;-64
2023/03/11 02:25:21;;;;;;;0.90;0.80;;;;;;;11.74;100.00;97160.53;5111836;28;20212;-64
2023/03/11 02:27:53;;;;;;;1.00;0.80;;;;;;;11.69;100.00;97156.88;5112120;27;20593;-61
2023/03/11 02:30:22;;;;;;;1.30;1.00;;;;;;;11.51;100.00;97160.44;5111764;28;20194;-61
2023/03/11 02:32:50;;;;;;;1.17;0.90;;;;;;;11.45;100.00;97161.09;5111947;28;20221;-64
2023/03/11 02:35:17;;;;;;;1.40;1.10;;;;;;;11.38;100.00;97154.25;5111626;28;20193;-64
2023/03/11 02:37:46;;;;;;;2.60;1.00;;;;;;;11.41;100.00;97148.81;5111593;28;20607;-61
2023/03/11 02:40:36;;;;;;;1.70;1.03;;;;;;;11.48;100.00;97158.19;5111545;28;20200;-61
2023/03/11 02:43:07;;;;;;;1.13;0.73;;;;;;;11.38;100.00;97165.28;5101962;28;20216;-63
2023/03/11 02:45:36;;;;;;;0.70;0.70;;;;;;;11.41;100.00;97164.94;5111281;28;20205;-64
2023/03/11 02:48:03;;;;;;;1.53;0.90;;;;;;;11.42;100.00;97161.41;5111294;28;20733;-64
2023/03/11 02:50:33;;;;;;;0.90;0.80;;;;;;;11.46;100.00;97161.88;5111167;28;20204;-61
2023/03/11 02:53:00;;;;;;;1.20;1.10;;;;;;;11.47;100.00;97164.28;5111575;28;20213;-61
2023/03/11 02:55:27;;;;;;;0.97;0.80;;;;;;;11.42;100.00;97169.09;5111093;28;20204;-64
2023/03/11 02:57:54;;;;;;;1.20;0.90;;;;;;;11.39;100.00;97166.88;5111065;28;20210;-64
2023/03/11 03:00:22;;;;;;;0.70;0.70;;;;;;;11.34;100.00;97179.34;5111123;28;20229;-64
2023/03/11 03:02:52;;;;;;;1.67;1.00;;;;;;;11.30;100.00;97178.06;5110818;28;20282;-64
2023/03/11 03:05:20;;;;;;;1.00;0.90;;;;;;;11.22;100.00;97170.41;5111177;28;20300;-64
2023/03/11 03:07:48;;;;;;;1.40;0.87;;;;;;;11.25;100.00;97164.97;5110833;28;20217;-64
2023/03/11 03:10:16;;;;;;;2.27;1.10;;;;;;;11.10;100.00;97155.38;5111238;28;20205;-61
2023/03/11 03:12:43;;;;;;;0.90;0.90;;;;;;;11.13;100.00;97149.16;5110786;28;20228;-61
2023/03/11 03:15:11;;;;;;;1.50;1.10;;;;;;;11.21;100.00;97148.34;5110915;28;20318;-64
2023/03/11 03:17:39;;;;;;;1.90;1.20;;;;;;;11.30;100.00;97142.25;5110609;28;20227;-64
2023/03/11 03:20:10;;;;;;;1.67;0.97;;;;;;;11.25;100.00;97134.28;5110717;28;20198;-64
2023/03/11 03:22:38;;;;;;;2.53;0.90;;;;;;;11.19;100.00;97129.81;5109624;28;20264;-61
2023/03/11 03:25:06;;;;;;;0.67;0.67;;;;;;;11.23;100.00;97129.34;5110503;28;20269;-61
2023/03/11 03:27:34;;;;;;;2.40;1.00;;;;;;;11.30;100.00;97132.81;5110537;28;20243;-64
2023/03/11 03:30:01;;;;;;;1.20;0.83;;;;;;;11.37;100.00;97138.06;5110436;28;20201;-64
2023/03/11 03:32:28;;;;;;;1.90;1.40;;;;;;;11.33;100.00;97131.69;5109960;28;20442;-61
2023/03/11 03:34:57;;;;;;;1.63;0.77;;;;;;;11.33;100.00;97131.69;5110879;28;20197;-61
2023/03/11 03:37:26;;;;;;;0.80;0.50;;;;;;;11.31;100.00;97131.06;5110225;28;20312;-64
2023/03/11 03:39:53;;;;;;;0.70;0.70;;;;;;;11.22;100.00;97145.63;5110374;28;20191;-64
2023/03/11 03:42:20;;;;;;;1.50;0.83;;;;;;;11.16;100.00;97155.72;5110355;28;20224;-64
2023/03/11 03:44:47;;;;;;;1.20;0.50;;;;;;;10.99;100.00;97145.50;5110258;28;20232;-64
2023/03/11 03:47:14;;;;;;;1.38;0.98;;;;;;;11.06;100.00;97136.22;5109988;28;20814;-64
2023/03/11 03:49:41;;;;;;;0.77;0.63;;;;;;;11.12;100.00;97134.00;5110303;28;20197;-61
2023/03/11 03:52:09;;;;;;;0.50;0.50;;;;;;;11.05;100.00;97149.16;5110487;28;20217;-61
2023/03/11 03:54:36;;;;;;;0.63;0.63;;;;;;;10.88;100.00;97149.19;5110124;28;20197;-61
2023/03/11 03:57:04;;;;;;;0.47;0.43;;;;;;;10.75;100.00;97135.28;5110146;28;20209;-61
2023/03/11 03:59:31;;;;;;;0.70;0.70;;;;;;;10.78;100.00;97143.44;5109985;28;20208;-65
2023/03/11 04:01:58;;;;;;;0.47;0.47;;;;;;;10.90;100.00;97136.22;5109969;28;20204;-65
2023/03/11 04:04:25;;;;;;;2.43;1.20;;;;;;;10.94;100.00;97141.81;5109811;28;20224;-65
2023/03/11 04:06:52;;;;;;;0.63;0.63;;;;;;;10.81;100.00;97152.53;5109825;28;20201;-61
2023/03/11 04:09:20;;;;;;;1.13;1.00;;;;;;;10.85;100.00;97153.84;5109831;28;20189;-61
2023/03/11 04:11:47;;;;;;;0.87;0.57;;;;;;;10.75;100.00;97159.09;5109707;28;20211;-63
2023/03/11 04:14:14;;;;;;;0.47;0.47;;;;;;;10.85;100.00;97156.38;5110001;28;20208;-63
2023/03/11 04:16:41;;;;;;;0.57;0.47;;;;;;;10.95;100.00;97158.78;5110191;28;20831;-61
2023/03/11 04:19:08;;;;;;;0.60;0.60;;;;;;;10.98;100.00;97163.56;5109279;28;20233;-61
2023/03/11 04:21:34;;;;;;;0.47;0.47;;;;;;;11.04;100.00;97158.59;5109839;28;20193;-61
2023/03/11 04:24:02;;;;;;;1.67;0.77;;;;;;;11.04;100.00;97158.59;5109615;28;20241;-61
2023/03/11 04:26:30;;;;;;;0.93;0.80;;;;;;;11.06;100.00;97164.34;5109577;28;20197;-61
2023/03/11 04:28:57;;;;;;;0.83;0.77;;;;;;;10.93;100.00;97165.78;5109754;28;20235;-61
2023/03/11 04:31:24;;;;;;;1.03;0.90;;;;;;;10.98;100.00;97164.34;5109896;28;20219;-61
2023/03/11 04:33:50;;;;;;;2.27;1.10;;;;;;;10.73;100.00;97160.19;5109803;28;20225;-63
2023/03/11 04:36:17;;;;;;;1.83;1.10;;;;;;;10.81;100.00;97162.75;5109677;28;20589;-63
2023/03/11 04:38:45;;;;;;;1.40;0.87;;;;;;;10.80;100.00;97156.06;5109786;28;20210;-63
2023/03/11 04:41:12;;;;;;;1.43;0.67;;;;;;;10.76;100.00;97159.88;5109567;28;20205;-61
2023/03/11 04:43:40;;;;;;;0.53;0.53;;;;;;;10.76;100.00;97158.16;5109757;28;20267;-62
2023/03/11 04:46:07;;;;;;;0.80;0.70;;;;;;;10.73;100.00;97155.88;5109543;28;20207;-61
2023/03/11 04:48:34;;;;;;;0.73;0.70;;;;;;;10.88;100.00;97144.06;5109387;28;20604;-63
2023/03/11 04:51:01;;;;;;;0.90;0.73;;;;;;;10.93;100.00;97140.22;5109521;28;20197;-63
2023/03/11 04:53:28;;;;;;;0.73;0.73;;;;;;;10.96;100.00;97140.69;5109508;28;20213;-63
2023/03/11 04:55:55;;;;;;;0.77;0.77;;;;;;;10.99;100.00;97139.59;5109343;28;20193;-64
2023/03/11 04:58:22;;;;;;;0.70;0.57;;;;;;;10.88;100.00;97138.97;5109462;28;20308;-63
2023/03/11 05:00:50;;;;;;;2.10;0.80;;;;;;;11.00;100.00;97136.88;5109386;28;20577;-62
2023/03/11 05:03:17;;;;;;;0.73;0.60;;;;;;;11.05;100.00;97146.59;5109146;28;20224;-62
2023/03/11 05:05:45;;;;;;;0.93;0.90;;;;;;;11.08;100.00;97148.84;5109262;28;20232;-61
2023/03/11 05:08:12;;;;;;;0.90;0.70;;;;;;;11.11;100.00;97143.41;5109228;28;20719;-61
2023/03/11 05:10:40;;;;;;;0.70;0.60;;;;;;;11.07;100.00;97149.81;5109300;28;20197;-63
2023/03/11 05:13:07;;;;;;;0.60;0.60;;;;;;;11.13;100.00;97161.16;5109583;28;20673;-63
2023/03/11 05:15:35;;;;;;;1.00;0.70;;;;;;;10.98;100.00;97164.34;5109313;28;20212;-63
2023/03/11 05:18:03;;;;;;;2.57;0.97;;;;;;;10.97;100.00;97165.31;5109366;28;20221;-63
2023/03/11 05:20:31;;;;;;;0.67;0.43;;;;;;;10.91;100.00;97178.75;5109009;28;20709;-64
2023/03/11 05:22:58;;;;;;;0.40;0.40;;;;;;;10.94;100.00;97173.31;5109389;28;20217;-65
2023/03/11 05:25:25;;;;;;;0.80;0.60;;;;;;;10.92;100.00;97180.34;5108979;28;20228;-65
2023/03/11 05:27:52;;;;;;;0.63;0.60;;;;;;;10.82;100.00;97177.13;5109424;28;20214;-59
2023/03/11 05:30:19;;;;;;;0.50;0.50;;;;;;;10.84;100.00;97177.78;5109069;28;20201;-60
2023/03/11 05:32:46;;;;;;;1.47;0.93;;;;;;;10.89;100.00;97180.66;5112834;28;20217;-60
2023/03/11 05:35:14;;;;;;;0.47;0.40;;;;;;;10.92;100.00;97177.78;5112864;28;20227;-60
2023/03/11 05:37:41;;;;;;;0.97;0.83;;;;;;;10.83;100.00;97176.19;5112511;28;20221;-64
2023/03/11 05:40:12;;;;;;;1.10;0.90;;;;;;;10.85;100.00;97179.41;5112929;28;20204;-64
2023/03/11 05:42:40;;;;;;;1.63;1.07;;;;;;;10.68;100.00;97172.69;5112668;28;20255;-64
2023/03/11 05:45:08;;;;;;;1.47;0.60;;;;;;;10.70;100.00;97174.09;5112400;28;20244;-65
2023/03/11 05:47:35;;;;;;;0.80;0.80;;;;;;;10.78;100.00;97183.53;5112545;28;20713;-60
2023/03/11 05:50:02;;;;;;;1.97;1.17;;;;;;;10.82;100.00;97183.06;5112416;28;20694;-60
2023/03/11 05:52:31;;;;;;;1.43;0.83;;;;;;;10.94;100.00;97185.28;5112318;28;20217;-59
2023/03/11 05:54:58;;;;;;;0.60;0.57;;;;;;;10.91;100.00;97183.88;5112513;28;20201;-59
2023/03/11 05:57:25;;;;;;;2.13;1.03;;;;;;;10.89;100.00;97190.88;5112323;28;20221;-59
2023/03/11 05:59:52;;;;;;;1.43;1.13;;;;;;;10.89;100.00;97185.78;5112311;28;20193;-63
2023/03/11 06:02:19;;;;;;;0.80;0.80;;;;;;;10.83;100.00;97186.41;5112725;28;20632;-63
2023/03/11 06:04:46;;;;;;;2.57;1.23;;;;;;;10.81;100.00;97186.56;5112122;28;20221;-64
2023/03/11 06:07:15;;;;;;;1.97;0.90;;;;;;;10.92;100.00;97185.47;5112459;28;20814;-64
2023/03/11 06:09:43;;;;;;;1.87;1.27;;;;;;;11.03;100.00;97187.69;5112159;28;20271;-64
2023/03/11 06:12:10;;;;;;;0.63;0.50;;;;;;;10.95;100.00;97192.81;5112082;28;20240;-64
2023/03/11 06:14:37;;;;;;;0.90;0.77;;;;;;;11.04;100.00;97194.41;5112020;28;20201;-60
2023/03/11 06:17:04;;;;;;;2.20;0.60;;;;;;;11.10;100.00;97192.97;5111958;28;20202;-60
2023/03/11 06:19:31;;;;;;;0.60;0.60;;;;;;;11.13;100.00;97196.97;5112315;28;20201;-60
2023/03/11 06:21:58;;;;;;;2.43;1.03;;;;;;;11.16;100.00;97191.53;5111621;28;20197;-60
2023/03/11 06:24:25;;;;;;;0.77;0.77;;;;;;;11.23;100.00;97202.72;5111837;28;20221;-60
2023/03/11 06:26:53;;;;;;;0.60;0.60;;;;;;;11.19;100.00;97201.44;5111757;28;20612;-60
2023/03/11 06:29:23;;;;;;;4.43;1.53;;;;;;;11.18;100.00;97205.75;5112132;28;20190;-60
2023/03/11 06:31:50;;;;;;;0.93;0.87;;;;;;;11.02;100.00;97201.41;5111433;28;20201;-60
2023/03/11 06:34:17;;;;;;;1.87;1.33;;;;;;;11.12;100.00;97215.84;5111796;28;20601;-60
2023/03/11 06:36:44;;;;;;;1.07;0.87;;;;;;;11.21;100.00;97215.66;5111859;28;20205;-60
2023/03/11 06:39:14;;;;;;;1.13;1.03;;;;;;;11.18;100.00;97220.31;5111599;28;20190;-60
2023/03/11 06:41:41;;;;;;;0.67;0.67;;;;;;;11.22;100.00;97221.56;5111348;28;20240;-63
2023/03/11 06:44:09;;;;;;;1.30;1.00;;;;;;;11.23;100.00;97218.06;5111632;28;20217;-63
2023/03/11 06:46:36;;;;;;;1.17;0.80;;;;;;;11.10;100.00;97214.22;5111628;28;20200;-60
2023/03/11 06:49:03;;;;;;;1.30;1.00;;;;;;;11.16;100.00;97209.44;5111393;28;20213;-60
2023/03/11 06:51:30;;;;;;;0.73;0.63;;;;;;;11.37;100.00;97214.84;5111446;28;20204;-60
2023/03/11 06:53:57;;;;;;;1.07;0.60;;;;;;;11.49;100.00;97223.78;5111312;28;20217;-60
2023/03/11 06:56:24;;;;;;;1.27;0.60;;;;;;;11.69;100.00;97218.31;5111269;28;20193;-60
2023/03/11 06:58:51;;;;;;;0.77;0.70;;;;;;;11.75;100.00;97222.75;5111253;28;20217;-59
2023/03/11 07:01:22;;;;;;;1.10;0.83;;;;;;;11.84;100.00;97226.94;5111329;28;20204;-60
2023/03/11 07:03:50;;;;;;;1.17;0.80;;;;;;;11.84;100.00;97226.09;5111142;28;20223;-60
2023/03/11 07:06:19;;;;;;;0.77;0.53;;;;;;;11.81;100.00;97232.38;5110960;28;20241;-60
2023/03/11 07:08:46;;;;;;;1.03;0.80;;;;;;;11.79;100.00;97231.72;5110984;28;20213;-59
2023/03/11 07:11:16;;;;;;;0.73;0.60;;;;;;;11.77;100.00;97237.00;5111142;28;20201;-60
2023/03/11 07:13:44;;;;;;;0.80;0.57;;;;;;;11.79;100.00;97239.41;5111290;28;20228;-60
2023/03/11 07:16:14;;;;;;;0.97;0.83;;;;;;;11.82;100.00;97244.22;5110931;28;20204;-59
2023/03/11 07:18:43;;;;;;;1.27;0.80;;;;;;;11.92;100.00;97237.16;5111157;28;20221;-63
2023/03/11 07:21:12;;;;;;;1.20;1.10;;;;;;;11.64;100.00;97235.94;5111088;28;20193;-64
2023/03/11 07:23:39;;;;;;;2.73;1.20;;;;;;;11.61;100.00;97231.16;5110847;28;20232;-63
2023/03/11 07:26:09;;;;;;;1.20;0.67;;;;;;;11.69;100.00;97236.22;5110636;28;20236;-63
2023/03/11 07:28:36;;;;;;;0.83;0.70;;;;;;;11.60;100.00;97222.63;5110580;28;20253;-63
2023/03/11 07:31:07;;;;;;;0.70;0.60;;;;;;;11.55;100.00;97228.25;5110643;28;20204;-63
2023/03/11 07:33:34;;;;;;;1.13;0.90;;;;;;;11.55;100.00;97233.38;5110731;28;20221;-60
2023/03/11 07:36:05;;;;;;;1.23;0.73;;;;;;;11.60;100.00;97224.41;5110369;28;20196;-60
2023/03/11 07:38:32;;;;;;;0.70;0.70;;;;;;;11.61;100.00;97226.03;5110354;28;20220;-60
2023/03/11 07:40:59;;;;;;;0.60;0.60;;;;;;;11.63;100.00;97208.72;5110442;28;20193;-60
2023/03/11 07:43:27;;;;;;;0.57;0.57;;;;;;;11.62;100.00;97207.94;5110489;28;20241;-60
2023/03/11 07:46:03;;;;;;;1.40;0.57;;;;;;;11.46;100.00;97203.66;5110228;28;20220;-60
2023/03/11 07:48:29;;;;;;;0.93;0.70;;;;;;;11.67;100.00;97199.78;5110464;28;20221;-63
2023/03/11 07:51:02;;;;;;;0.70;0.70;;;;;;;11.86;100.00;97203.72;5110211;28;20197;-63
2023/03/11 07:53:29;;;;;;;0.40;0.40;;;;;;;11.99;100.00;97194.56;5109476;28;20777;-63
2023/03/11 07:55:56;;;;;;;1.37;0.60;;;;;;;12.22;100.00;97193.84;5110206;27;20204;-63
2023/03/11 07:58:23;;;;;;;1.23;0.90;;;;;;;12.51;100.00;97187.25;5110328;28;20216;-60
2023/03/11 08:00:50;;;;;;;1.60;0.80;;;;;;;12.80;100.00;97194.25;5109972;28;20211;-60
2023/03/11 08:03:18;;;;;;;1.00;0.90;;;;;;;12.86;100.00;97194.41;5110043;28;20228;-59
2023/03/11 08:05:44;;;;;;;0.43;0.43;;;;;;;12.62;100.00;97194.56;5109962;28;20232;-60
2023/03/11 08:08:13;;;;;;;1.07;0.97;;;;;;;12.68;100.00;97193.88;5110161;28;20213;-59
2023/03/11 08:10:40;;;;;;;0.80;0.80;;;;;;;12.52;100.00;97179.41;5109997;28;20646;-63
2023/03/11 08:13:06;;;;;;;1.17;0.67;;;;;;;12.59;100.00;97177.75;5110195;28;20228;-64
2023/03/11 08:15:33;;;;;;;0.57;0.57;;;;;;;12.75;100.00;97171.72;5109907;28;20197;-60
2023/03/11 08:18:00;;;;;;;0.57;0.57;;;;;;;12.93;100.00;97166.28;5109867;28;20228;-60
2023/03/11 08:20:27;;;;;;;0.60;0.60;;;;;;;13.22;100.00;97164.75;5110053;28;20197;-60
2023/03/11 08:22:54;;;;;;;1.10;0.90;;;;;;;13.41;100.00;97163.47;5110037;28;20217;-63
2023/03/11 08:25:22;;;;;;;1.60;0.60;;;;;;;13.44;100.00;97163.13;5109601;28;20230;-63
2023/03/11 08:27:49;;;;;;;1.17;0.77;;;;;;;13.45;100.00;97159.59;5109990;28;20218;-60
2023/03/11 08:30:16;;;;;;;1.07;0.87;;;;;;;13.92;100.00;97155.84;5109858;28;20214;-60
2023/03/11 08:32:43;;;;;;;1.03;0.90;;;;;;;14.54;100.00;97144.28;5109697;28;20230;-63
2023/03/11 08:35:10;;;;;;;1.20;0.70;;;;;;;15.05;100.00;97134.63;5109849;28;20203;-64
2023/03/11 08:37:37;;;;;;;1.70;1.00;;;;;;;15.52;100.00;97127.97;5109852;28;20717;-60
2023/03/11 08:40:05;;;;;;;0.90;0.83;;;;;;;16.03;100.00;97124.28;5109583;28;20209;-60
2023/03/11 08:42:33;;;;;;;0.83;0.83;;;;;;;16.36;100.00;97129.50;5109531;28;20308;-60
2023/03/11 08:45:00;;;;;;;0.67;0.67;;;;;;;16.42;100.00;97108.09;5109728;28;20237;-60
2023/03/11 08:47:27;;;;;;;0.60;0.57;;;;;;;16.30;100.00;97114.81;5109402;28;20215;-60
2023/03/11 08:49:54;;;;;;;0.63;0.63;;;;;;;16.37;100.00;97109.66;5109648;28;20202;-60
2023/03/11 08:52:21;;;;;;;0.70;0.70;;;;;;;16.62;100.00;97107.31;5109533;28;20217;-60
2023/03/11 08:54:48;;;;;;;0.60;0.60;;;;;;;16.85;100.00;97100.00;5109697;28;20226;-60
2023/03/11 08:57:14;;;;;;;0.70;0.70;;;;;;;16.95;99.69;97092.63;5109330;28;20217;-64
2023/03/11 08:59:43;;;;;;;0.60;0.60;;;;;;;16.78;94.98;97094.03;5109616;28;20450;-64
2023/03/11 09:02:10;;;;;;;0.97;0.77;;;;;;;17.08;98.95;97097.00;5109371;28;20213;-64
2023/03/11 09:04:37;;;;;;;0.90;0.67;;;;;;;16.25;97.75;97081.09;5110056;28;20199;-60
2023/03/11 09:07:04;;;;;;;0.63;0.63;;;;;;;16.27;100.00;97079.13;5112937;28;20248;-60
2023/03/11 09:09:31;;;;;;;0.67;0.60;;;;;;;16.68;95.08;97085.88;5113614;28;20207;-64
2023/03/11 09:11:57;;;;;;;0.60;0.60;;;;;;;16.61;93.59;97085.91;5113009;28;20725;-64
2023/03/11 09:14:24;;;;;;;0.80;0.70;;;;;;;17.14;91.62;97079.94;5113339;28;20203;-64
2023/03/11 09:16:53;;;;;;;0.70;0.70;;;;;;;17.30;84.59;97087.22;5113078;28;20213;-60
2023/03/11 09:19:19;;;;;;;0.87;0.77;;;;;;;16.24;86.73;97080.28;5113178;28;20218;-60
2023/03/11 09:21:46;;;;;;;0.60;0.60;;;;;;;15.43;92.78;97076.84;5113413;28;20197;-64
2023/03/11 09:24:13;;;;;;;0.60;0.60;;;;;;;15.54;92.10;97084.81;5112484;28;20193;-64
2023/03/11 09:26:40;;;;;;;0.67;0.67;;;;;;;15.68;96.15;97077.16;5113161;28;20232;-60
2023/03/11 09:29:07;;;;;;;2.57;1.00;;;;;;;15.92;92.86;97079.22;5112901;28;20232;-64
2023/03/11 09:31:34;;;;;;;1.17;0.73;;;;;;;16.27;90.53;97084.28;5112956;28;20279;-64
2023/03/11 09:34:02;;;;;;;0.67;0.67;;;;;;;15.95;91.27;97086.56;5113034;28;20238;-64
2023/03/11 09:36:29;;;;;;;1.97;0.97;;;;;;;15.65;94.17;97073.19;5112764;28;20212;-64
2023/03/11 09:38:55;;;;;;;1.17;0.90;;;;;;;15.95;93.62;97081.41;5112615;28;20219;-64
2023/03/11 09:41:39;;;;;;;0.83;0.80;;;;;;;16.18;91.16;97088.03;5112965;28;20201;-60
2023/03/11 09:44:16;;;;;;;1.20;1.00;;;;;;;16.54;91.24;97077.34;5112622;28;20221;-60
2023/03/11 09:47:26;;;;;;;0.80;0.80;;;;;;;17.18;92.97;97076.72;5112853;27;20228;-60
2023/03/11 09:50:15;;;;;;;1.63;1.40;;;;;;;18.10;86.81;97079.19;5112511;28;20195;-60
2023/03/11 09:52:46;;;;;;;1.70;1.40;;;;;;;18.01;82.93;97070.09;5112507;28;20227;-60
2023/03/11 09:55:27;;;;;;;1.20;1.03;;;;;;;18.10;80.80;97071.44;5112840;28;20203;-60
2023/03/11 09:57:56;;;;;;;1.57;1.10;;;;;;;17.95;80.82;97070.91;5112579;28;20224;-64
2023/03/11 10:00:24;;;;;;;1.33;1.20;;;;;;;17.92;81.27;97072.13;5112488;28;20199;-64
2023/03/11 10:02:51;;;;;;;1.40;1.10;;;;;;;18.25;79.79;97064.16;5112416;28;20624;-64
2023/03/11 10:05:24;;;;;;;1.23;1.13;;;;;;;17.95;77.54;97070.91;5112057;28;20205;-66
2023/03/11 10:07:58;;;;;;;1.50;1.30;;;;;;;17.53;76.89;97067.88;5112257;28;20714;-60
2023/03/11 10:10:30;;;;;;;1.30;1.20;;;;;;;17.34;78.42;97072.91;5112318;28;20196;-61
2023/03/11 10:13:06;;;;;;;1.43;1.17;;;;;;;17.70;82.32;97069.00;5112508;28;20230;-60
2023/03/11 10:15:47;;;;;;;1.17;0.93;;;;;;;17.54;74.30;97067.69;5112204;28;20195;-64
2023/03/11 10:18:37;;;;;;;1.57;1.30;;;;;;;17.62;80.14;97077.00;5111494;28;20227;-65
2023/03/11 10:21:18;;;;;;;1.63;1.17;;;;;;;17.81;74.92;97085.69;5112224;28;20195;-59
2023/03/11 10:24:06;;;;;;;2.30;1.50;;;;;;;18.14;75.05;97077.75;5112195;28;20223;-61
2023/03/11 10:26:36;;;;;;;1.63;1.33;;;;;;;18.35;77.12;97078.44;5111939;28;20742;-65
2023/03/11 10:29:13;;;;;;;1.43;1.30;;;;;;;18.17;74.05;97074.75;5111888;28;20779;-65
2023/03/11 10:31:46;;;;;;;1.73;1.30;;;;;;;18.75;76.68;97082.31;5111909;28;20203;-65
2023/03/11 10:34:21;;;;;;;1.27;1.17;;;;;;;17.99;71.57;97059.16;5112031;28;20670;-66
2023/03/11 10:36:58;;;;;;;1.20;1.10;;;;;;;17.94;73.84;97071.91;5111828;28;20192;-65
2023/03/11 10:39:27;;;;;;;1.57;1.17;;;;;;;18.69;73.88;97072.78;5111640;28;20212;-60
2023/03/11 10:41:57;;;;;;;1.70;1.20;;;;;;;18.12;76.92;97071.19;5111305;28;20647;-60
2023/03/11 10:44:29;;;;;;;1.53;1.20;;;;;;;18.38;73.53;97070.25;5111749;28;20570;-60
2023/03/11 10:46:56;;;;;;;2.27;1.20;;;;;;;18.39;75.66;97064.09;5110931;28;20227;-60
2023/03/11 10:49:23;;;;;;;1.77;1.37;;;;;;;18.36;75.73;97025.69;5111229;28;20191;-60
2023/03/11 10:51:52;;;;;;;1.60;1.23;;;;;;;18.44;71.29;97059.03;5110786;28;20201;-60
2023/03/11 10:54:31;;;;;;;1.70;1.20;;;;;;;18.67;70.70;97058.47;5110783;28;20192;-59
2023/03/11 10:57:00;;;;;;;1.30;1.20;;;;;;;18.13;70.52;97045.16;5111457;28;20205;-65
2023/03/11 10:59:30;;;;;;;1.97;1.50;;;;;;;18.17;74.26;97048.88;5111253;28;20675;-65
2023/03/11 11:02:00;;;;;;;1.33;1.10;;;;;;;18.07;74.87;97054.53;5111243;28;20244;-60
2023/03/11 11:04:36;;;;;;;2.03;1.47;;;;;;;17.77;74.45;97046.53;5111022;28;20200;-60
2023/03/11 11:07:28;;;;;;;1.43;1.23;;;;;;;17.93;69.99;97049.66;5111084;27;20222;-60
2023/03/11 11:10:15;;;;;;;1.37;1.07;;;;;;;18.20;69.36;97043.28;5111083;28;20194;-60
2023/03/11 11:12:58;;;;;;;1.90;1.40;;;;;;;17.77;77.76;97041.34;5111555;28;20224;-65
2023/03/11 11:15:27;;;;;;;1.47;1.03;;;;;;;17.66;73.72;97047.16;5109207;28;20208;-64
2023/03/11 11:17:56;;;;;;;1.60;1.40;;;;;;;18.11;70.32;97044.56;5110782;28;20228;-64
2023/03/11 11:20:25;;;;;;;2.03;1.30;;;;;;;17.68;70.41;97039.97;5110795;28;20667;-64
2023/03/11 11:22:55;;;;;;;2.47;1.50;;;;;;;17.27;71.85;97048.09;5110662;28;20215;-64
2023/03/11 11:25:31;;;;;;;2.10;1.37;;;;;;;17.48;73.44;97036.69;5111090;28;20198;-60
2023/03/11 11:28:01;;;;;;;1.70;1.17;;;;;;;17.87;75.33;97036.53;5109920;28;20243;-60
2023/03/11 11:30:28;;;;;;;2.00;1.20;;;;;;;17.63;74.04;97047.59;5110244;28;20206;-60
2023/03/11 11:32:55;;;;;;;1.70;1.20;;;;;;;17.79;74.41;97041.94;5110508;28;20219;-60
2023/03/11 11:35:24;;;;;;;1.10;1.00;;;;;;;17.83;70.80;97043.13;5110245;28;20202;-60